New River MCAS /H/ /Mccutcheon Fld/ Airport
KNCA : now visible

Airfield :











YOU CAN JOIN US ON...

 
LOGIN :

Register | Disclaimer

   EN    FR    IT 

 









Legend :    VFR   Marginal VFR   IFR   Intensive IFR   Very Intensive IFR
Visi :
Ceiling :
>= 8 km
>= 3000ft
5 to 8 km
1000 to 3000 ft
1500m to 5 km
500 to 1000 ft
800 to 1500m
200 to 500 ft
< 800m
< 200 ft
Symbols :   Thunderstorms  Fog  Heavy snow  Heavy precipitations  Wind > 20 kt






- Airport Elevation : 26 ft


KNCA - New River MCAS /H/ /Mccutcheon Fld/

CURRENT METAR :
  • 280556Z AUTO 28005KT 7SM CLR 07/06 A2985 RMK AO2 SLP110 60004 T00670056 10111 20067 53005

EXPIRED METARs :
  • 280456Z AUTO 31005KT 8SM FEW065 08/07 A2984 RMK AO2 SLP107 T00780067 401670050
  • 280436Z AUTO 31005KT 8SM FEW005 BKN065 BKN120 08/07 A2984 RMK AO2 T00830072
  • 280356Z AUTO 32007KT 10SM BKN110 09/07 A2984 RMK AO2 RAE30 SLP106 P0000 T00890072

TAF TAF KNCA
Valid from the 28 at 03:00 until the 29 at 03:00 UTC


2803/2903 28008KT 9999 BKN040 OVC050 QNH2978INS
TEMPO 2803/2806 32012KT 8000 SHRA BR SCT010 BKN030
BECMG 2806/2808 29010KT 9999 SCT040 QNH2985INS
FM281400 34008KT 9999 SKC QNH2994INS T03/2812Z T12/2821Z



MET'MAP, your aeronautical weather chart ! - Copyright ORBIFLY December 2007 - Disclaimer

ORBIFLY MET'MAP TEAM :

Programming & Development : Alexandra Zaïnal
Concept & original design : Baudouin d'Aumeries
Assistance for programming : Marc-Olivier Méhu
Technical & hardware support : Manuel Goepfert

Contact : metmap@orbifly.com




SOURCES & CREDITS :

   NOAA       Earth
Advisory